This is the latest recevied weather packets stored in our database for station/object KG7DQI-13. If no packets are shown the sender has not sent any weather packets the latest 10 day(s).
| Time | Temp. | Humidity | Pressure | Rain* | Wind** | Luminosity | Snow |
|---|---|---|---|---|---|---|---|
| 1788711099 | 10° C | 89% | 914.9 hPa | 0 mm | - | 181 W/m² | - |
| 1788707624 | 8.89° C | 96% | 914.6 hPa | 0 mm | - | 95 W/m² | - |
| 1788706709 | 8.33° C | 96% | 914.4 hPa | 0 mm | - | 69 W/m² | - |
| 1788705829 | 8.33° C | 96% | 914.4 hPa | 0 mm | - | 30 W/m² | - |
| 1788704952 | 8.33° C | 96% | 914.3 hPa | 0 mm | - | 14 W/m² | - |
| 1788704039 | 7.78° C | 96% | 914.3 hPa | 0 mm | - | 16 W/m² | - |
| 1788694028 | 8.89° C | 95% | 914.4 hPa | 0 mm | - | 0 W/m² | - |
| 1788691306 | 9.44° C | 95% | 915.2 hPa | 4.06 mm | - | 0 W/m² | - |
| 1788690433 | 9.44° C | 95% | 915.1 hPa | 4.06 mm | - | 0 W/m² | - |
| 1788689515 | 9.44° C | 94% | 914.8 hPa | 0 mm | - | 0 W/m² | - |
| 1788688630 | 9.44° C | 94% | 914.8 hPa | 0 mm | - | 0 W/m² | - |
| 1788686881 | 9.44° C | 94% | 914.9 hPa | 0 mm | - | 0 W/m² | - |
| 1788685131 | 9.44° C | 93% | 914.8 hPa | 0 mm | - | 0 W/m² | - |
| 1788684227 | 9.44° C | 93% | 914.8 hPa | 0 mm | - | 0 W/m² | - |
| 1788683317 | 9.44° C | 93% | 915 hPa | 0 mm | - | 0 W/m² | - |
| 1788682445 | 9.44° C | 93% | 915 hPa | 0 mm | - | 0 W/m² | - |
| 1788681505 | 9.44° C | 93% | 914.9 hPa | 0 mm | - | 0 W/m² | - |
| 1788679738 | 9.44° C | 93% | 914.4 hPa | 0 mm | - | 0 W/m² | - |
| 1788676086 | 10° C | 92% | 915.1 hPa | 0 mm | - | 0 W/m² | - |
| 1788675210 | 10° C | 92% | 915.2 hPa | 0 mm | - | 0 W/m² | - |
| 1788674308 | 10° C | 91% | 915.4 hPa | 0 mm | - | 0 W/m² | - |
| 1788671592 | 10.56° C | 88% | 916.1 hPa | 3.05 mm | - | 0 W/m² | - |
| 1788669769 | 11.67° C | 82% | 915.9 hPa | 0 mm | - | 0 W/m² | - |
| 1788668859 | 11.67° C | 81% | 915.7 hPa | 0 mm | - | 0 W/m² | - |
| 1788667988 | 12.22° C | 80% | 915.2 hPa | 0 mm | - | 0 W/m² | - |
* Rain latest hour (hover to see other rain measurements)
** Current wind speed in m/s (hover to see current wind gust speed)